sensor_id;sensor_type;location;lat;lon;timestamp;P1;durP1;ratioP1;P2;durP2;ratioP2
70313;SDS011;71040;47.526;18.986;2024-03-25T00:02:15;1.37;;;0.70;;
70313;SDS011;71040;47.526;18.986;2024-03-25T00:07:16;2.05;;;1.00;;
70313;SDS011;71040;47.526;18.986;2024-03-25T00:12:17;1.30;;;0.60;;
70313;SDS011;71040;47.526;18.986;2024-03-25T00:17:17;1.83;;;0.80;;
70313;SDS011;71040;47.526;18.986;2024-03-25T00:22:20;1.90;;;0.57;;
70313;SDS011;71040;47.526;18.986;2024-03-25T00:27:21;1.02;;;0.40;;
70313;SDS011;71040;47.526;18.986;2024-03-25T00:32:21;1.30;;;0.60;;
70313;SDS011;71040;47.526;18.986;2024-03-25T00:37:24;1.00;;;0.60;;
70313;SDS011;71040;47.526;18.986;2024-03-25T00:42:28;1.17;;;0.70;;
70313;SDS011;71040;47.526;18.986;2024-03-25T00:47:28;1.00;;;0.50;;
70313;SDS011;71040;47.526;18.986;2024-03-25T00:52:31;0.80;;;0.40;;
70313;SDS011;71040;47.526;18.986;2024-03-25T00:57:32;2.03;;;1.00;;
70313;SDS011;71040;47.526;18.986;2024-03-25T01:02:32;1.17;;;0.68;;
70313;SDS011;71040;47.526;18.986;2024-03-25T01:07:35;1.00;;;0.47;;
70313;SDS011;71040;47.526;18.986;2024-03-25T01:12:40;1.20;;;0.55;;
70313;SDS011;71040;47.526;18.986;2024-03-25T01:17:41;2.17;;;1.03;;
70313;SDS011;71040;47.526;18.986;2024-03-25T01:22:41;1.27;;;0.70;;
70313;SDS011;71040;47.526;18.986;2024-03-25T01:27:41;0.90;;;0.50;;
70313;SDS011;71040;47.526;18.986;2024-03-25T01:32:44;1.17;;;0.77;;
70313;SDS011;71040;47.526;18.986;2024-03-25T01:37:47;1.17;;;0.63;;
70313;SDS011;71040;47.526;18.986;2024-03-25T01:42:59;1.40;;;0.70;;
70313;SDS011;71040;47.526;18.986;2024-03-25T01:48:04;2.55;;;0.70;;
70313;SDS011;71040;47.526;18.986;2024-03-25T01:53:06;1.27;;;0.50;;
70313;SDS011;71040;47.526;18.986;2024-03-25T01:58:07;1.67;;;0.68;;
70313;SDS011;71040;47.526;18.986;2024-03-25T02:03:11;2.15;;;0.73;;
70313;SDS011;71040;47.526;18.986;2024-03-25T02:08:11;1.35;;;0.70;;
70313;SDS011;71040;47.526;18.986;2024-03-25T02:13:12;1.10;;;0.60;;
70313;SDS011;71040;47.526;18.986;2024-03-25T02:18:17;1.17;;;0.60;;
70313;SDS011;71040;47.526;18.986;2024-03-25T02:23:25;1.10;;;0.50;;
70313;SDS011;71040;47.526;18.986;2024-03-25T02:28:28;1.92;;;0.50;;
70313;SDS011;71040;47.526;18.986;2024-03-25T02:33:29;1.58;;;0.50;;
70313;SDS011;71040;47.526;18.986;2024-03-25T02:38:29;1.40;;;0.30;;
70313;SDS011;71040;47.526;18.986;2024-03-25T02:43:33;0.88;;;0.57;;
70313;SDS011;71040;47.526;18.986;2024-03-25T02:48:36;1.17;;;0.52;;
70313;SDS011;71040;47.526;18.986;2024-03-25T02:53:36;0.90;;;0.30;;
70313;SDS011;71040;47.526;18.986;2024-03-25T02:58:41;1.08;;;0.52;;
70313;SDS011;71040;47.526;18.986;2024-03-25T03:03:45;1.05;;;0.50;;
70313;SDS011;71040;47.526;18.986;2024-03-25T03:08:45;0.90;;;0.40;;
70313;SDS011;71040;47.526;18.986;2024-03-25T03:13:48;0.80;;;0.30;;
70313;SDS011;71040;47.526;18.986;2024-03-25T03:18:53;1.52;;;0.40;;
70313;SDS011;71040;47.526;18.986;2024-03-25T03:23:59;1.08;;;0.30;;
70313;SDS011;71040;47.526;18.986;2024-03-25T03:29:01;1.02;;;0.43;;
70313;SDS011;71040;47.526;18.986;2024-03-25T03:34:02;0.93;;;0.30;;
70313;SDS011;71040;47.526;18.986;2024-03-25T03:39:03;1.23;;;0.40;;
70313;SDS011;71040;47.526;18.986;2024-03-25T03:44:06;0.60;;;0.30;;
70313;SDS011;71040;47.526;18.986;2024-03-25T03:49:06;0.70;;;0.30;;
70313;SDS011;71040;47.526;18.986;2024-03-25T03:54:09;0.70;;;0.30;;
70313;SDS011;71040;47.526;18.986;2024-03-25T03:59:12;0.40;;;0.20;;
70313;SDS011;71040;47.526;18.986;2024-03-25T04:04:15;0.57;;;0.30;;
70313;SDS011;71040;47.526;18.986;2024-03-25T04:09:15;0.40;;;0.30;;
70313;SDS011;71040;47.526;18.986;2024-03-25T04:14:16;1.47;;;0.40;;
70313;SDS011;71040;47.526;18.986;2024-03-25T04:19:16;0.70;;;0.30;;
70313;SDS011;71040;47.526;18.986;2024-03-25T04:24:21;0.70;;;0.40;;
70313;SDS011;71040;47.526;18.986;2024-03-25T04:29:22;0.70;;;0.40;;
70313;SDS011;71040;47.526;18.986;2024-03-25T04:34:22;0.60;;;0.30;;
70313;SDS011;71040;47.526;18.986;2024-03-25T04:39:27;0.57;;;0.28;;
70313;SDS011;71040;47.526;18.986;2024-03-25T04:44:30;0.85;;;0.20;;
70313;SDS011;71040;47.526;18.986;2024-03-25T04:49:30;0.77;;;0.47;;
70313;SDS011;71040;47.526;18.986;2024-03-25T04:54:33;1.35;;;0.22;;
70313;SDS011;71040;47.526;18.986;2024-03-25T04:59:34;0.73;;;0.22;;
70313;SDS011;71040;47.526;18.986;2024-03-25T05:04:34;2.05;;;0.40;;
70313;SDS011;71040;47.526;18.986;2024-03-25T05:09:35;1.25;;;0.38;;
70313;SDS011;71040;47.526;18.986;2024-03-25T05:14:37;0.63;;;0.20;;
70313;SDS011;71040;47.526;18.986;2024-03-25T05:19:40;0.70;;;0.30;;
70313;SDS011;71040;47.526;18.986;2024-03-25T05:24:40;1.33;;;0.40;;
70313;SDS011;71040;47.526;18.986;2024-03-25T05:29:41;1.10;;;0.40;;
70313;SDS011;71040;47.526;18.986;2024-03-25T05:34:41;1.23;;;0.30;;
70313;SDS011;71040;47.526;18.986;2024-03-25T05:39:44;0.60;;;0.30;;
70313;SDS011;71040;47.526;18.986;2024-03-25T05:44:46;0.95;;;0.50;;
70313;SDS011;71040;47.526;18.986;2024-03-25T05:49:47;1.00;;;0.40;;
70313;SDS011;71040;47.526;18.986;2024-03-25T05:54:47;1.07;;;0.40;;
70313;SDS011;71040;47.526;18.986;2024-03-25T05:59:48;1.43;;;0.67;;
70313;SDS011;71040;47.526;18.986;2024-03-25T06:04:50;1.15;;;0.60;;
70313;SDS011;71040;47.526;18.986;2024-03-25T06:09:51;0.93;;;0.50;;
70313;SDS011;71040;47.526;18.986;2024-03-25T06:14:54;0.67;;;0.30;;
70313;SDS011;71040;47.526;18.986;2024-03-25T06:19:54;1.50;;;0.30;;
70313;SDS011;71040;47.526;18.986;2024-03-25T06:24:54;1.57;;;0.50;;
70313;SDS011;71040;47.526;18.986;2024-03-25T06:29:57;0.50;;;0.20;;
70313;SDS011;71040;47.526;18.986;2024-03-25T06:35:20;0.88;;;0.45;;
70313;SDS011;71040;47.526;18.986;2024-03-25T06:40:20;1.03;;;0.30;;
70313;SDS011;71040;47.526;18.986;2024-03-25T06:45:22;0.95;;;0.40;;
70313;SDS011;71040;47.526;18.986;2024-03-25T06:50:22;0.60;;;0.30;;
70313;SDS011;71040;47.526;18.986;2024-03-25T06:55:23;0.50;;;0.30;;
70313;SDS011;71040;47.526;18.986;2024-03-25T07:00:28;0.60;;;0.30;;
70313;SDS011;71040;47.526;18.986;2024-03-25T07:05:31;0.65;;;0.20;;
70313;SDS011;71040;47.526;18.986;2024-03-25T07:10:31;0.60;;;0.30;;
70313;SDS011;71040;47.526;18.986;2024-03-25T07:15:32;0.82;;;0.38;;
70313;SDS011;71040;47.526;18.986;2024-03-25T07:20:35;0.50;;;0.20;;
70313;SDS011;71040;47.526;18.986;2024-03-25T07:25:36;0.70;;;0.20;;
70313;SDS011;71040;47.526;18.986;2024-03-25T07:30:36;0.30;;;0.20;;
70313;SDS011;71040;47.526;18.986;2024-03-25T07:35:37;0.60;;;0.30;;
70313;SDS011;71040;47.526;18.986;2024-03-25T07:40:42;0.70;;;0.22;;
70313;SDS011;71040;47.526;18.986;2024-03-25T07:45:44;0.80;;;0.30;;
70313;SDS011;71040;47.526;18.986;2024-03-25T07:50:48;0.50;;;0.32;;
70313;SDS011;71040;47.526;18.986;2024-03-25T07:55:48;0.90;;;0.30;;
70313;SDS011;71040;47.526;18.986;2024-03-25T08:00:48;1.07;;;0.30;;
70313;SDS011;71040;47.526;18.986;2024-03-25T08:05:49;0.70;;;0.20;;
70313;SDS011;71040;47.526;18.986;2024-03-25T08:10:49;0.52;;;0.20;;
70313;SDS011;71040;47.526;18.986;2024-03-25T08:15:50;0.40;;;0.20;;
70313;SDS011;71040;47.526;18.986;2024-03-25T08:20:50;0.75;;;0.30;;
70313;SDS011;71040;47.526;18.986;2024-03-25T08:25:51;0.73;;;0.40;;
70313;SDS011;71040;47.526;18.986;2024-03-25T08:30:51;0.40;;;0.30;;
70313;SDS011;71040;47.526;18.986;2024-03-25T08:35:52;0.77;;;0.30;;
70313;SDS011;71040;47.526;18.986;2024-03-25T08:40:54;0.50;;;0.20;;
70313;SDS011;71040;47.526;18.986;2024-03-25T08:45:55;1.42;;;0.45;;
70313;SDS011;71040;47.526;18.986;2024-03-25T08:50:55;0.40;;;0.20;;
70313;SDS011;71040;47.526;18.986;2024-03-25T08:55:56;0.50;;;0.28;;
70313;SDS011;71040;47.526;18.986;2024-03-25T09:00:56;0.93;;;0.30;;
70313;SDS011;71040;47.526;18.986;2024-03-25T09:05:59;0.35;;;0.20;;
70313;SDS011;71040;47.526;18.986;2024-03-25T09:11:00;1.17;;;0.30;;
70313;SDS011;71040;47.526;18.986;2024-03-25T09:16:07;0.65;;;0.30;;
70313;SDS011;71040;47.526;18.986;2024-03-25T09:21:07;0.43;;;0.30;;
70313;SDS011;71040;47.526;18.986;2024-03-25T09:26:07;1.23;;;0.30;;
70313;SDS011;71040;47.526;18.986;2024-03-25T09:31:11;0.70;;;0.50;;
70313;SDS011;71040;47.526;18.986;2024-03-25T09:36:16;0.85;;;0.43;;
70313;SDS011;71040;47.526;18.986;2024-03-25T09:41:16;0.83;;;0.23;;
70313;SDS011;71040;47.526;18.986;2024-03-25T09:46:21;0.75;;;0.30;;
70313;SDS011;71040;47.526;18.986;2024-03-25T09:51:26;0.40;;;0.28;;
70313;SDS011;71040;47.526;18.986;2024-03-25T09:56:27;0.85;;;0.28;;
70313;SDS011;71040;47.526;18.986;2024-03-25T10:01:27;0.70;;;0.30;;
70313;SDS011;71040;47.526;18.986;2024-03-25T10:06:27;0.50;;;0.20;;
70313;SDS011;71040;47.526;18.986;2024-03-25T10:11:30;0.50;;;0.20;;
70313;SDS011;71040;47.526;18.986;2024-03-25T10:16:37;1.48;;;0.40;;
70313;SDS011;71040;47.526;18.986;2024-03-25T10:21:40;1.13;;;0.45;;
70313;SDS011;71040;47.526;18.986;2024-03-25T10:26:42;0.90;;;0.40;;
70313;SDS011;71040;47.526;18.986;2024-03-25T10:31:58;1.00;;;0.40;;
70313;SDS011;71040;47.526;18.986;2024-03-25T10:37:01;1.50;;;0.40;;
70313;SDS011;71040;47.526;18.986;2024-03-25T10:42:04;2.13;;;0.40;;
70313;SDS011;71040;47.526;18.986;2024-03-25T10:47:05;0.98;;;0.43;;
70313;SDS011;71040;47.526;18.986;2024-03-25T10:52:08;1.05;;;0.55;;
70313;SDS011;71040;47.526;18.986;2024-03-25T10:57:14;2.38;;;0.50;;
70313;SDS011;71040;47.526;18.986;2024-03-25T11:02:18;0.63;;;0.25;;
70313;SDS011;71040;47.526;18.986;2024-03-25T11:07:24;1.08;;;0.50;;
70313;SDS011;71040;47.526;18.986;2024-03-25T11:12:41;1.67;;;0.57;;
70313;SDS011;71040;47.526;18.986;2024-03-25T11:17:48;0.93;;;0.43;;
70313;SDS011;71040;47.526;18.986;2024-03-25T11:22:56;0.88;;;0.40;;
70313;SDS011;71040;47.526;18.986;2024-03-25T11:27:56;1.58;;;0.38;;
70313;SDS011;71040;47.526;18.986;2024-03-25T11:33:01;0.80;;;0.35;;
70313;SDS011;71040;47.526;18.986;2024-03-25T11:38:07;0.60;;;0.25;;
70313;SDS011;71040;47.526;18.986;2024-03-25T11:43:10;2.20;;;0.30;;
70313;SDS011;71040;47.526;18.986;2024-03-25T11:48:20;0.88;;;0.30;;
70313;SDS011;71040;47.526;18.986;2024-03-25T11:53:21;1.17;;;0.60;;
70313;SDS011;71040;47.526;18.986;2024-03-25T11:58:21;0.70;;;0.30;;
70313;SDS011;71040;47.526;18.986;2024-03-25T12:03:26;1.73;;;0.50;;
70313;SDS011;71040;47.526;18.986;2024-03-25T12:08:27;0.93;;;0.30;;
70313;SDS011;71040;47.526;18.986;2024-03-25T12:13:37;1.13;;;0.40;;
70313;SDS011;71040;47.526;18.986;2024-03-25T12:18:45;1.65;;;0.68;;
70313;SDS011;71040;47.526;18.986;2024-03-25T12:23:47;1.35;;;0.65;;
70313;SDS011;71040;47.526;18.986;2024-03-25T12:28:49;1.08;;;0.63;;
70313;SDS011;71040;47.526;18.986;2024-03-25T12:33:52;0.73;;;0.30;;
70313;SDS011;71040;47.526;18.986;2024-03-25T12:38:55;1.10;;;0.40;;
70313;SDS011;71040;47.526;18.986;2024-03-25T12:43:57;0.70;;;0.40;;
70313;SDS011;71040;47.526;18.986;2024-03-25T12:49:00;0.98;;;0.50;;
70313;SDS011;71040;47.526;18.986;2024-03-25T12:54:01;1.35;;;0.82;;
70313;SDS011;71040;47.526;18.986;2024-03-25T12:59:01;1.83;;;0.60;;
70313;SDS011;71040;47.526;18.986;2024-03-25T13:04:01;1.23;;;0.40;;
70313;SDS011;71040;47.526;18.986;2024-03-25T13:09:02;0.93;;;0.50;;
70313;SDS011;71040;47.526;18.986;2024-03-25T13:14:04;0.95;;;0.43;;
70313;SDS011;71040;47.526;18.986;2024-03-25T13:19:09;1.85;;;0.55;;
70313;SDS011;71040;47.526;18.986;2024-03-25T13:24:14;1.33;;;0.40;;
70313;SDS011;71040;47.526;18.986;2024-03-25T13:29:15;1.95;;;0.50;;
70313;SDS011;71040;47.526;18.986;2024-03-25T13:34:17;1.13;;;0.47;;
70313;SDS011;71040;47.526;18.986;2024-03-25T13:39:21;1.55;;;0.50;;
70313;SDS011;71040;47.526;18.986;2024-03-25T13:44:21;1.77;;;0.57;;
70313;SDS011;71040;47.526;18.986;2024-03-25T13:49:24;2.00;;;0.60;;
70313;SDS011;71040;47.526;18.986;2024-03-25T13:54:26;1.40;;;0.43;;
70313;SDS011;71040;47.526;18.986;2024-03-25T13:59:27;1.27;;;0.57;;
70313;SDS011;71040;47.526;18.986;2024-03-25T14:04:27;1.50;;;0.60;;
70313;SDS011;71040;47.526;18.986;2024-03-25T14:09:27;1.03;;;0.37;;
70313;SDS011;71040;47.526;18.986;2024-03-25T14:14:28;0.85;;;0.40;;
70313;SDS011;71040;47.526;18.986;2024-03-25T14:19:30;1.00;;;0.40;;
70313;SDS011;71040;47.526;18.986;2024-03-25T14:24:31;0.98;;;0.47;;
70313;SDS011;71040;47.526;18.986;2024-03-25T14:29:31;1.00;;;0.40;;
70313;SDS011;71040;47.526;18.986;2024-03-25T14:34:31;0.90;;;0.40;;
70313;SDS011;71040;47.526;18.986;2024-03-25T14:39:32;0.77;;;0.30;;
70313;SDS011;71040;47.526;18.986;2024-03-25T14:44:35;0.68;;;0.40;;
70313;SDS011;71040;47.526;18.986;2024-03-25T14:49:38;1.10;;;0.52;;
70313;SDS011;71040;47.526;18.986;2024-03-25T14:54:44;0.85;;;0.40;;
70313;SDS011;71040;47.526;18.986;2024-03-25T14:59:49;0.85;;;0.40;;
70313;SDS011;71040;47.526;18.986;2024-03-25T15:04:55;0.75;;;0.40;;
70313;SDS011;71040;47.526;18.986;2024-03-25T15:09:58;0.85;;;0.43;;
70313;SDS011;71040;47.526;18.986;2024-03-25T15:15:05;0.88;;;0.60;;
70313;SDS011;71040;47.526;18.986;2024-03-25T15:20:10;0.53;;;0.30;;
70313;SDS011;71040;47.526;18.986;2024-03-25T15:25:11;1.08;;;0.63;;
70313;SDS011;71040;47.526;18.986;2024-03-25T15:30:15;0.55;;;0.30;;
70313;SDS011;71040;47.526;18.986;2024-03-25T15:35:15;0.73;;;0.40;;
70313;SDS011;71040;47.526;18.986;2024-03-25T15:40:18;0.82;;;0.30;;
70313;SDS011;71040;47.526;18.986;2024-03-25T15:45:18;1.30;;;0.40;;
70313;SDS011;71040;47.526;18.986;2024-03-25T15:50:19;0.95;;;0.30;;
70313;SDS011;71040;47.526;18.986;2024-03-25T15:55:19;1.20;;;0.40;;
70313;SDS011;71040;47.526;18.986;2024-03-25T16:00:20;0.77;;;0.30;;
70313;SDS011;71040;47.526;18.986;2024-03-25T16:05:23;0.70;;;0.30;;
70313;SDS011;71040;47.526;18.986;2024-03-25T16:10:34;0.67;;;0.33;;
70313;SDS011;71040;47.526;18.986;2024-03-25T16:15:38;0.88;;;0.40;;
70313;SDS011;71040;47.526;18.986;2024-03-25T16:20:39;0.80;;;0.40;;
70313;SDS011;71040;47.526;18.986;2024-03-25T16:25:41;0.80;;;0.30;;
70313;SDS011;71040;47.526;18.986;2024-03-25T16:30:42;0.75;;;0.50;;
70313;SDS011;71040;47.526;18.986;2024-03-25T16:35:42;0.97;;;0.40;;
70313;SDS011;71040;47.526;18.986;2024-03-25T16:40:45;1.00;;;0.50;;
70313;SDS011;71040;47.526;18.986;2024-03-25T16:45:48;0.75;;;0.35;;
70313;SDS011;71040;47.526;18.986;2024-03-25T16:50:48;1.00;;;0.50;;
70313;SDS011;71040;47.526;18.986;2024-03-25T16:55:54;0.93;;;0.40;;
70313;SDS011;71040;47.526;18.986;2024-03-25T17:00:58;1.02;;;0.30;;
70313;SDS011;71040;47.526;18.986;2024-03-25T17:05:59;0.70;;;0.40;;
70313;SDS011;71040;47.526;18.986;2024-03-25T17:10:59;0.60;;;0.20;;
70313;SDS011;71040;47.526;18.986;2024-03-25T17:15:59;0.63;;;0.37;;
70313;SDS011;71040;47.526;18.986;2024-03-25T17:21:02;0.90;;;0.40;;
70313;SDS011;71040;47.526;18.986;2024-03-25T17:26:03;0.88;;;0.40;;
70313;SDS011;71040;47.526;18.986;2024-03-25T17:31:06;0.50;;;0.28;;
70313;SDS011;71040;47.526;18.986;2024-03-25T17:36:09;0.75;;;0.40;;
70313;SDS011;71040;47.526;18.986;2024-03-25T17:41:10;2.17;;;0.60;;
70313;SDS011;71040;47.526;18.986;2024-03-25T17:46:12;1.67;;;0.47;;
70313;SDS011;71040;47.526;18.986;2024-03-25T17:51:13;1.00;;;0.50;;
70313;SDS011;71040;47.526;18.986;2024-03-25T17:56:13;1.07;;;0.60;;
70313;SDS011;71040;47.526;18.986;2024-03-25T18:01:14;1.38;;;0.50;;
70313;SDS011;71040;47.526;18.986;2024-03-25T18:06:14;0.93;;;0.43;;
70313;SDS011;71040;47.526;18.986;2024-03-25T18:11:17;1.53;;;0.40;;
70313;SDS011;71040;47.526;18.986;2024-03-25T18:16:17;1.08;;;0.50;;
70313;SDS011;71040;47.526;18.986;2024-03-25T18:21:19;0.82;;;0.50;;
70313;SDS011;71040;47.526;18.986;2024-03-25T18:26:24;1.13;;;0.60;;
70313;SDS011;71040;47.526;18.986;2024-03-25T18:31:27;1.70;;;0.97;;
70313;SDS011;71040;47.526;18.986;2024-03-25T18:36:28;1.02;;;0.60;;
70313;SDS011;71040;47.526;18.986;2024-03-25T18:41:28;0.82;;;0.55;;
70313;SDS011;71040;47.526;18.986;2024-03-25T18:46:35;1.77;;;1.00;;
70313;SDS011;71040;47.526;18.986;2024-03-25T18:51:35;2.58;;;0.80;;
70313;SDS011;71040;47.526;18.986;2024-03-25T18:56:36;1.20;;;0.70;;
70313;SDS011;71040;47.526;18.986;2024-03-25T19:01:41;3.28;;;0.88;;
70313;SDS011;71040;47.526;18.986;2024-03-25T19:06:41;2.17;;;0.95;;
70313;SDS011;71040;47.526;18.986;2024-03-25T19:11:42;1.70;;;0.97;;
70313;SDS011;71040;47.526;18.986;2024-03-25T19:16:42;1.07;;;0.60;;
70313;SDS011;71040;47.526;18.986;2024-03-25T19:21:43;1.83;;;0.80;;
70313;SDS011;71040;47.526;18.986;2024-03-25T19:26:43;2.05;;;0.77;;
70313;SDS011;71040;47.526;18.986;2024-03-25T19:31:46;1.15;;;0.70;;
70313;SDS011;71040;47.526;18.986;2024-03-25T19:36:48;1.35;;;0.80;;
70313;SDS011;71040;47.526;18.986;2024-03-25T19:41:52;1.92;;;1.10;;
70313;SDS011;71040;47.526;18.986;2024-03-25T19:46:55;2.00;;;0.95;;
70313;SDS011;71040;47.526;18.986;2024-03-25T19:51:56;2.07;;;1.03;;
70313;SDS011;71040;47.526;18.986;2024-03-25T19:57:01;2.30;;;0.95;;
70313;SDS011;71040;47.526;18.986;2024-03-25T20:02:04;1.73;;;1.13;;
70313;SDS011;71040;47.526;18.986;2024-03-25T20:07:04;3.65;;;1.02;;
70313;SDS011;71040;47.526;18.986;2024-03-25T20:12:05;2.58;;;0.98;;
70313;SDS011;71040;47.526;18.986;2024-03-25T20:17:05;1.98;;;1.05;;
70313;SDS011;71040;47.526;18.986;2024-03-25T20:22:10;2.53;;;1.48;;
70313;SDS011;71040;47.526;18.986;2024-03-25T20:27:13;2.80;;;1.20;;
70313;SDS011;71040;47.526;18.986;2024-03-25T20:32:16;2.00;;;1.20;;
70313;SDS011;71040;47.526;18.986;2024-03-25T20:37:16;2.67;;;1.40;;
70313;SDS011;71040;47.526;18.986;2024-03-25T20:42:19;2.40;;;1.38;;
70313;SDS011;71040;47.526;18.986;2024-03-25T20:47:20;2.57;;;1.57;;
70313;SDS011;71040;47.526;18.986;2024-03-25T20:52:20;1.77;;;1.00;;
70313;SDS011;71040;47.526;18.986;2024-03-25T20:57:21;3.42;;;1.35;;
70313;SDS011;71040;47.526;18.986;2024-03-25T21:02:21;2.53;;;1.47;;
70313;SDS011;71040;47.526;18.986;2024-03-25T21:07:22;2.67;;;1.40;;
70313;SDS011;71040;47.526;18.986;2024-03-25T21:12:27;2.78;;;1.88;;
70313;SDS011;71040;47.526;18.986;2024-03-25T21:17:27;3.93;;;1.90;;
70313;SDS011;71040;47.526;18.986;2024-03-25T21:22:28;3.08;;;2.20;;
70313;SDS011;71040;47.526;18.986;2024-03-25T21:27:30;4.20;;;2.08;;
70313;SDS011;71040;47.526;18.986;2024-03-25T21:32:30;2.77;;;1.53;;
70313;SDS011;71040;47.526;18.986;2024-03-25T21:37:31;2.63;;;1.50;;
70313;SDS011;71040;47.526;18.986;2024-03-25T21:42:32;2.67;;;1.70;;
70313;SDS011;71040;47.526;18.986;2024-03-25T21:47:32;3.63;;;1.90;;
70313;SDS011;71040;47.526;18.986;2024-03-25T21:52:44;2.55;;;1.63;;
70313;SDS011;71040;47.526;18.986;2024-03-25T21:57:50;3.78;;;1.90;;
70313;SDS011;71040;47.526;18.986;2024-03-25T22:02:50;4.40;;;2.13;;
70313;SDS011;71040;47.526;18.986;2024-03-25T22:07:53;2.55;;;1.60;;
70313;SDS011;71040;47.526;18.986;2024-03-25T22:12:54;2.70;;;1.75;;
70313;SDS011;71040;47.526;18.986;2024-03-25T22:17:54;5.75;;;2.05;;
70313;SDS011;71040;47.526;18.986;2024-03-25T22:23:01;3.50;;;1.90;;
70313;SDS011;71040;47.526;18.986;2024-03-25T22:28:05;3.22;;;1.75;;
70313;SDS011;71040;47.526;18.986;2024-03-25T22:33:05;3.40;;;1.67;;
70313;SDS011;71040;47.526;18.986;2024-03-25T22:38:06;3.20;;;1.63;;
70313;SDS011;71040;47.526;18.986;2024-03-25T22:43:08;4.13;;;2.05;;
70313;SDS011;71040;47.526;18.986;2024-03-25T22:48:11;3.28;;;1.70;;
70313;SDS011;71040;47.526;18.986;2024-03-25T22:53:14;3.13;;;1.80;;
70313;SDS011;71040;47.526;18.986;2024-03-25T22:58:14;3.43;;;2.00;;
70313;SDS011;71040;47.526;18.986;2024-03-25T23:03:18;3.08;;;1.70;;
70313;SDS011;71040;47.526;18.986;2024-03-25T23:08:22;2.55;;;1.50;;
70313;SDS011;71040;47.526;18.986;2024-03-25T23:13:28;3.65;;;1.80;;
70313;SDS011;71040;47.526;18.986;2024-03-25T23:18:28;3.15;;;1.50;;
70313;SDS011;71040;47.526;18.986;2024-03-25T23:23:31;1.80;;;1.30;;
70313;SDS011;71040;47.526;18.986;2024-03-25T23:28:31;3.37;;;1.80;;
70313;SDS011;71040;47.526;18.986;2024-03-25T23:33:34;2.47;;;1.85;;
70313;SDS011;71040;47.526;18.986;2024-03-25T23:38:38;2.85;;;1.65;;
70313;SDS011;71040;47.526;18.986;2024-03-25T23:43:44;3.15;;;1.58;;
70313;SDS011;71040;47.526;18.986;2024-03-25T23:48:44;2.58;;;1.73;;
70313;SDS011;71040;47.526;18.986;2024-03-25T23:53:44;3.23;;;2.00;;
70313;SDS011;71040;47.526;18.986;2024-03-25T23:58:47;3.97;;;1.50;;
